createdAt,value
2019-01-16T00:00:19.563Z,6.80
2019-01-16T00:03:05.799Z,6.80
2019-01-16T00:06:01.731Z,6.80
2019-01-16T00:08:57.689Z,6.80
2019-01-16T00:11:37.514Z,6.80
2019-01-16T00:14:23.419Z,6.80
2019-01-16T00:17:10.623Z,6.80
2019-01-16T00:19:48.095Z,6.80
2019-01-16T00:22:34.167Z,6.80
2019-01-16T00:25:13.129Z,6.90
2019-01-16T00:28:08.554Z,6.90
2019-01-16T00:30:59.714Z,6.90
2019-01-16T00:33:41.080Z,6.90
2019-01-16T00:36:40.163Z,7.00
2019-01-16T00:39:26.167Z,7.00
2019-01-16T00:42:25.515Z,7.00
2019-01-16T00:45:15.295Z,7.00
2019-01-16T00:48:07.164Z,7.00
2019-01-16T00:50:43.505Z,7.00
2019-01-16T00:53:29.315Z,7.10
2019-01-16T00:56:15.403Z,7.10
2019-01-16T00:58:57.930Z,7.10
2019-01-16T01:04:25.513Z,7.10
2019-01-16T01:07:14.460Z,7.10
2019-01-16T01:09:51.443Z,7.10
2019-01-16T01:12:28.746Z,7.10
2019-01-16T01:15:12.884Z,7.20
2019-01-16T01:17:55.811Z,7.20
2019-01-16T01:20:39.283Z,7.20
2019-01-16T01:23:29.112Z,7.20
2019-01-16T01:26:34.809Z,7.20
2019-01-16T01:29:19.616Z,7.20
2019-01-16T01:31:57.640Z,7.20
2019-01-16T01:34:40.951Z,7.20
2019-01-16T01:37:27.959Z,7.20
2019-01-16T01:40:04.035Z,7.20
2019-01-16T01:42:47.971Z,7.20
2019-01-16T01:45:33.875Z,7.20
2019-01-16T01:48:30.087Z,7.20
2019-01-16T01:51:16.718Z,7.20
2019-01-16T01:53:58.387Z,7.30
2019-01-16T01:56:44.516Z,7.30
2019-01-16T01:59:30.576Z,7.30
2019-01-16T02:02:04.991Z,7.30
2019-01-16T02:04:55.516Z,7.30
2019-01-16T02:07:34.135Z,7.30
2019-01-16T02:10:12.202Z,7.30
2019-01-16T02:12:58.323Z,7.40
2019-01-16T02:15:34.799Z,7.40
2019-01-16T02:18:31.162Z,7.40
2019-01-16T02:21:21.149Z,7.40
2019-01-16T02:23:57.988Z,7.40
2019-01-16T02:26:46.867Z,7.30
2019-01-16T02:29:28.635Z,7.30
2019-01-16T02:32:23.510Z,7.30
2019-01-16T02:35:09.624Z,7.40
2019-01-16T02:37:59.131Z,7.40
2019-01-16T02:40:45.169Z,7.30
2019-01-16T02:43:28.790Z,7.30
2019-01-16T02:46:18.725Z,7.30
2019-01-16T02:48:56.511Z,7.30
2019-01-16T02:51:56.023Z,7.30
2019-01-16T02:54:55.147Z,7.20
2019-01-16T02:57:46.771Z,7.20
2019-01-16T03:00:23.182Z,7.20
2019-01-16T03:03:10.179Z,7.20
2019-01-16T03:05:47.735Z,7.20
2019-01-16T03:08:37.849Z,7.20
2019-01-16T03:11:28.240Z,7.20
2019-01-16T03:14:24.442Z,7.20
2019-01-16T03:17:10.230Z,7.20
2019-01-16T03:20:00.314Z,7.20
2019-01-16T03:22:47.870Z,7.20
2019-01-16T03:25:37.503Z,7.10
2019-01-16T03:28:25.078Z,7.10
2019-01-16T03:31:15.254Z,7.10
2019-01-16T03:34:05.661Z,7.00
2019-01-16T03:37:03.943Z,7.00
2019-01-16T03:39:49.996Z,7.00
2019-01-16T03:42:36.131Z,7.00
2019-01-16T03:45:14.790Z,6.90
2019-01-16T03:48:00.659Z,6.90
2019-01-16T03:51:06.229Z,6.90
2019-01-16T03:54:02.857Z,6.90
2019-01-16T03:56:53.267Z,6.90
2019-01-16T03:59:31.874Z,6.90
2019-01-16T04:02:18.458Z,6.90
2019-01-16T04:05:05.566Z,6.80
2019-01-16T04:07:52.590Z,6.80
2019-01-16T04:10:39.898Z,6.90
2019-01-16T04:13:26.418Z,6.90
2019-01-16T04:16:02.367Z,6.90
2019-01-16T04:18:48.705Z,6.80
2019-01-16T04:21:39.122Z,6.80
2019-01-16T04:24:23.735Z,6.90
2019-01-16T04:27:23.175Z,6.90
2019-01-16T04:29:58.065Z,6.90
2019-01-16T04:32:41.913Z,6.90
2019-01-16T04:35:40.955Z,6.90
2019-01-16T04:38:19.126Z,6.90
2019-01-16T04:40:54.081Z,6.90
2019-01-16T04:43:40.658Z,6.90
2019-01-16T04:46:27.705Z,6.90
2019-01-16T04:49:12.850Z,6.90
2019-01-16T04:51:53.405Z,6.90
2019-01-16T04:54:42.791Z,7.00
2019-01-16T04:57:23.541Z,6.90
2019-01-16T05:00:02.533Z,6.90
2019-01-16T05:02:46.430Z,6.90
2019-01-16T05:05:33.837Z,6.90
2019-01-16T05:08:29.130Z,6.90
2019-01-16T05:11:20.468Z,6.90
2019-01-16T05:14:07.500Z,6.90
2019-01-16T05:17:01.563Z,6.90
2019-01-16T05:19:47.897Z,6.90
2019-01-16T05:22:36.139Z,6.90
2019-01-16T05:25:26.987Z,6.90
2019-01-16T05:28:08.618Z,7.00
2019-01-16T05:30:55.475Z,7.00
2019-01-16T05:33:37.850Z,7.00
2019-01-16T05:36:23.113Z,7.00
2019-01-16T05:39:15.567Z,7.00
2019-01-16T05:42:01.707Z,7.00
2019-01-16T05:44:48.891Z,7.00
2019-01-16T05:47:36.808Z,7.00
2019-01-16T05:50:12.375Z,7.00
2019-01-16T05:52:58.447Z,7.00
2019-01-16T05:55:51.616Z,7.00
2019-01-16T05:58:41.418Z,6.90
2019-01-16T06:01:30.570Z,7.00
2019-01-16T06:04:15.106Z,6.90
2019-01-16T06:07:00.268Z,6.90
2019-01-16T06:09:46.131Z,6.90
2019-01-16T06:12:24.686Z,6.90
2019-01-16T06:15:11.682Z,6.90
2019-01-16T06:17:57.894Z,6.90
2019-01-16T06:20:39.919Z,6.90
2019-01-16T06:23:25.591Z,6.90
2019-01-16T06:26:02.075Z,6.90
2019-01-16T06:28:36.578Z,6.90
2019-01-16T06:31:22.360Z,6.90
2019-01-16T06:34:20.235Z,6.90
2019-01-16T06:37:06.350Z,6.90
2019-01-16T06:39:53.878Z,6.90
2019-01-16T06:42:44.697Z,6.90
2019-01-16T06:45:26.071Z,6.80
2019-01-16T06:48:25.336Z,6.80
2019-01-16T06:51:07.369Z,6.80
2019-01-16T06:54:00.500Z,6.80
2019-01-16T06:56:47.030Z,6.80
2019-01-16T06:59:25.667Z,6.80
2019-01-16T07:02:15.554Z,6.80
2019-01-16T07:05:01.636Z,6.70
2019-01-16T07:07:46.900Z,6.80
2019-01-16T07:10:30.982Z,6.70
2019-01-16T07:13:13.146Z,6.70
2019-01-16T07:16:00.119Z,6.80
2019-01-16T07:18:45.800Z,6.70
2019-01-16T07:21:28.079Z,6.80
2019-01-16T07:24:25.820Z,6.70
2019-01-16T07:27:23.818Z,6.70
2019-01-16T07:30:02.878Z,6.70
2019-01-16T07:32:40.431Z,6.70
2019-01-16T07:35:34.307Z,6.70
2019-01-16T07:38:22.537Z,6.70
2019-01-16T07:41:09.615Z,6.70
2019-01-16T07:43:55.692Z,6.80
2019-01-16T07:46:52.911Z,6.80
2019-01-16T07:49:42.474Z,6.70
2019-01-16T07:52:29.545Z,6.70
2019-01-16T07:55:09.963Z,6.70
2019-01-16T07:57:50.950Z,6.70
2019-01-16T08:00:36.735Z,6.80
2019-01-16T08:03:39.196Z,6.80
2019-01-16T08:06:15.687Z,6.80
2019-01-16T08:09:07.867Z,6.80
2019-01-16T08:11:53.370Z,6.80
2019-01-16T08:14:55.466Z,6.80
2019-01-16T08:17:30.844Z,6.80
2019-01-16T08:20:16.727Z,6.80
2019-01-16T08:22:52.834Z,6.80
2019-01-16T08:25:38.611Z,6.90
2019-01-16T08:28:21.734Z,6.90
2019-01-16T08:30:59.667Z,6.90
2019-01-16T08:33:55.556Z,6.90
2019-01-16T08:36:42.535Z,6.90
2019-01-16T08:39:29.555Z,6.90
2019-01-16T08:42:16.942Z,7.00
2019-01-16T08:45:03.036Z,7.00
2019-01-16T08:47:50.120Z,7.00
2019-01-16T08:50:32.531Z,7.00
2019-01-16T08:53:16.350Z,7.00
2019-01-16T08:56:05.618Z,7.00
2019-01-16T08:58:55.713Z,7.00
2019-01-16T09:01:42.695Z,7.00
2019-01-16T09:04:29.827Z,7.00
2019-01-16T09:07:16.816Z,7.10
2019-01-16T09:09:59.267Z,7.10
2019-01-16T09:12:46.243Z,7.10
2019-01-16T09:15:25.793Z,7.10
2019-01-16T09:18:00.717Z,7.10
2019-01-16T09:20:42.744Z,7.10
2019-01-16T09:23:28.465Z,7.10
2019-01-16T09:26:07.131Z,7.00
2019-01-16T09:28:46.574Z,7.00
2019-01-16T09:31:32.650Z,7.10
2019-01-16T09:34:13.811Z,7.00
2019-01-16T09:36:54.338Z,7.10
2019-01-16T09:39:49.831Z,7.10
2019-01-16T09:42:38.262Z,7.10
2019-01-16T09:45:31.488Z,7.20
2019-01-16T09:48:17.580Z,7.20
2019-01-16T09:51:03.622Z,7.20
2019-01-16T09:53:48.426Z,7.20
2019-01-16T09:56:34.447Z,7.20
2019-01-16T09:59:20.671Z,7.20
2019-01-16T10:02:17.246Z,7.20
2019-01-16T10:05:06.299Z,7.20
2019-01-16T10:08:01.071Z,7.20
2019-01-16T10:10:47.481Z,7.30
2019-01-16T10:13:41.659Z,7.30
2019-01-16T10:16:22.654Z,7.30
2019-01-16T10:18:59.994Z,7.30
2019-01-16T10:21:45.942Z,7.30
2019-01-16T10:24:21.067Z,7.30
2019-01-16T10:27:10.522Z,7.30
2019-01-16T10:29:53.462Z,7.30
2019-01-16T10:32:33.199Z,7.30
2019-01-16T10:35:16.858Z,7.30
2019-01-16T10:38:13.274Z,7.30
2019-01-16T10:41:06.732Z,7.30
2019-01-16T10:43:54.058Z,7.30
2019-01-16T10:46:39.802Z,7.30
2019-01-16T10:49:16.914Z,7.20
2019-01-16T10:52:03.994Z,7.30
2019-01-16T10:54:38.184Z,7.30
2019-01-16T10:57:20.733Z,7.30
2019-01-16T11:00:06.636Z,7.30
2019-01-16T11:02:57.319Z,7.20
2019-01-16T11:05:46.905Z,7.30
2019-01-16T11:08:31.901Z,7.30
2019-01-16T11:11:17.681Z,7.30
2019-01-16T11:14:03.980Z,7.40
2019-01-16T11:16:56.634Z,7.40
2019-01-16T11:19:37.469Z,7.40
2019-01-16T11:22:20.131Z,7.50
2019-01-16T11:25:02.047Z,7.50
2019-01-16T11:27:40.845Z,7.50
2019-01-16T11:30:26.147Z,7.60
2019-01-16T11:33:17.341Z,7.60
2019-01-16T11:35:59.159Z,7.60
2019-01-16T11:38:42.567Z,7.70
2019-01-16T11:41:16.224Z,7.70
2019-01-16T11:43:55.315Z,7.70
2019-01-16T11:46:46.243Z,7.80
2019-01-16T11:49:36.327Z,7.90
2019-01-16T11:52:18.068Z,7.90
2019-01-16T11:55:14.691Z,8.00
2019-01-16T11:57:55.743Z,8.00
2019-01-16T12:00:41.751Z,8.00
2019-01-16T12:03:27.748Z,8.00
2019-01-16T12:06:08.694Z,7.90
2019-01-16T12:08:55.723Z,7.80
2019-01-16T12:11:38.922Z,7.90
2019-01-16T12:14:16.508Z,7.80
2019-01-16T12:16:57.394Z,7.80
2019-01-16T12:19:32.623Z,7.80
2019-01-16T12:22:31.768Z,7.70
2019-01-16T12:25:06.767Z,7.70
2019-01-16T12:27:59.934Z,7.70
2019-01-16T12:30:52.894Z,7.80
2019-01-16T12:33:44.287Z,7.70
2019-01-16T12:36:30.405Z,7.70
2019-01-16T12:39:11.331Z,7.70
2019-01-16T12:41:59.756Z,7.70
2019-01-16T12:44:42.014Z,7.80
2019-01-16T12:47:22.598Z,7.80
2019-01-16T12:50:08.523Z,7.80
2019-01-16T12:52:58.579Z,7.80
2019-01-16T12:55:44.430Z,7.80
2019-01-16T12:58:26.249Z,7.80
2019-01-16T13:01:05.446Z,7.80
2019-01-16T13:03:51.555Z,7.80
2019-01-16T13:06:30.519Z,7.80
2019-01-16T13:09:06.383Z,7.80
2019-01-16T13:11:52.398Z,7.80
2019-01-16T13:14:45.360Z,7.90
2019-01-16T13:17:35.718Z,7.80
2019-01-16T13:20:14.316Z,7.80
2019-01-16T13:23:02.977Z,7.70
2019-01-16T13:25:44.658Z,7.70
2019-01-16T13:28:30.651Z,7.80
2019-01-16T13:31:17.996Z,7.80
2019-01-16T13:33:55.298Z,7.70
2019-01-16T13:36:48.256Z,7.70
2019-01-16T13:39:34.120Z,7.70
2019-01-16T13:42:21.274Z,7.80
2019-01-16T13:45:02.510Z,7.90
2019-01-16T13:47:46.691Z,7.90
2019-01-16T13:50:27.644Z,7.80
2019-01-16T13:53:12.005Z,7.80
2019-01-16T13:55:53.674Z,7.80
2019-01-16T13:58:47.287Z,7.70
2019-01-16T14:01:37.362Z,7.70
2019-01-16T14:04:19.127Z,7.60
2019-01-16T14:06:57.876Z,7.60
2019-01-16T14:09:54.189Z,7.60
2019-01-16T14:12:33.871Z,7.60
2019-01-16T14:15:19.711Z,7.60
2019-01-16T14:18:00.526Z,7.50
2019-01-16T14:20:41.163Z,7.50
2019-01-16T14:23:21.039Z,7.50
2019-01-16T14:26:06.972Z,7.60
2019-01-16T14:28:50.064Z,7.50
2019-01-16T14:31:29.462Z,7.50
2019-01-16T14:34:12.115Z,7.50
2019-01-16T14:37:00.450Z,7.60
2019-01-16T14:39:53.681Z,7.60
2019-01-16T14:42:28.146Z,7.60
2019-01-16T14:45:03.512Z,7.60
2019-01-16T14:47:43.422Z,7.60
2019-01-16T14:50:34.883Z,7.60
2019-01-16T14:53:17.283Z,7.60
2019-01-16T14:55:53.730Z,7.60
2019-01-16T14:58:39.453Z,7.50
2019-01-16T15:01:29.499Z,7.50
2019-01-16T15:04:06.510Z,7.50
2019-01-16T15:06:57.006Z,7.50
2019-01-16T15:09:43.327Z,7.40
2019-01-16T15:12:33.234Z,7.40
2019-01-16T15:15:20.283Z,7.30
2019-01-16T15:18:01.160Z,7.20
2019-01-16T15:20:38.919Z,7.20
2019-01-16T15:23:14.103Z,7.20
2019-01-16T15:25:59.714Z,7.30
2019-01-16T15:28:42.536Z,7.20
2019-01-16T15:31:33.995Z,7.20
2019-01-16T15:34:21.086Z,7.20
2019-01-16T15:37:06.951Z,7.20
2019-01-16T15:40:00.330Z,7.20
2019-01-16T15:42:45.535Z,7.20
2019-01-16T15:45:25.205Z,7.10
2019-01-16T15:48:11.015Z,7.10
2019-01-16T15:50:56.859Z,7.20
2019-01-16T15:53:44.939Z,7.10
2019-01-16T15:56:24.647Z,7.10
2019-01-16T15:59:19.179Z,7.10
2019-01-16T16:02:18.289Z,7.10
2019-01-16T16:04:56.178Z,7.10
2019-01-16T16:07:43.174Z,7.10
2019-01-16T16:10:34.002Z,7.10
2019-01-16T16:13:11.651Z,7.10
2019-01-16T16:15:51.780Z,7.10
2019-01-16T16:18:35.038Z,7.00
2019-01-16T16:21:19.698Z,7.00
2019-01-16T16:23:55.759Z,7.00
2019-01-16T16:26:51.528Z,7.00
2019-01-16T16:29:33.771Z,7.00
2019-01-16T16:32:32.858Z,6.90
2019-01-16T16:35:11.624Z,7.00
2019-01-16T16:38:02.423Z,6.90
2019-01-16T16:40:38.718Z,6.90
2019-01-16T16:43:22.574Z,6.90
2019-01-16T16:46:21.588Z,6.90
2019-01-16T16:49:08.570Z,6.90
2019-01-16T16:51:53.980Z,6.80
2019-01-16T16:54:48.135Z,6.80
2019-01-16T16:57:40.539Z,6.80
2019-01-16T17:00:27.298Z,6.90
2019-01-16T17:03:20.812Z,6.80
2019-01-16T17:06:07.141Z,6.80
2019-01-16T17:08:51.670Z,6.80
2019-01-16T17:11:37.583Z,6.80
2019-01-16T17:14:23.872Z,6.80
2019-01-16T17:17:10.975Z,6.80
2019-01-16T17:19:56.736Z,6.70
2019-01-16T17:22:43.996Z,6.80
2019-01-16T17:25:30.438Z,6.70
2019-01-16T17:28:19.368Z,6.70
2019-01-16T17:31:06.931Z,6.70
2019-01-16T17:33:45.091Z,6.70
2019-01-16T17:36:32.186Z,6.70
2019-01-16T17:39:15.026Z,6.70
2019-01-16T17:41:54.818Z,6.70
2019-01-16T17:44:32.168Z,6.60
2019-01-16T17:47:22.259Z,6.60
2019-01-16T17:50:17.819Z,6.60
2019-01-16T17:53:00.550Z,6.60
2019-01-16T17:55:41.151Z,6.60
2019-01-16T17:58:33.079Z,6.60
2019-01-16T18:01:07.502Z,6.50
2019-01-16T18:03:53.654Z,6.50
2019-01-16T18:06:47.438Z,6.50
2019-01-16T18:09:32.345Z,6.50
2019-01-16T18:12:11.574Z,6.50
2019-01-16T18:15:03.507Z,6.50
2019-01-16T18:17:49.134Z,6.50
2019-01-16T18:20:51.806Z,6.50
2019-01-16T18:23:42.117Z,6.50
2019-01-16T18:26:35.717Z,6.50
2019-01-16T18:29:27.885Z,6.40
2019-01-16T18:32:18.079Z,6.50
2019-01-16T18:34:56.589Z,6.40
2019-01-16T18:37:49.962Z,6.40
2019-01-16T18:40:26.971Z,6.40
2019-01-16T18:43:17.657Z,6.40
2019-01-16T18:46:01.623Z,6.40
2019-01-16T18:48:54.751Z,6.40
2019-01-16T18:51:33.830Z,6.40
2019-01-16T18:54:25.921Z,6.30
2019-01-16T18:57:11.734Z,6.30
2019-01-16T18:59:57.783Z,6.30
2019-01-16T19:02:47.181Z,6.30
2019-01-16T19:05:22.930Z,6.30
2019-01-16T19:08:19.059Z,6.30
2019-01-16T19:11:06.994Z,6.30
2019-01-16T19:13:53.302Z,6.30
2019-01-16T19:16:45.562Z,6.30
2019-01-16T19:19:31.562Z,6.20
2019-01-16T19:22:19.494Z,6.20
2019-01-16T19:24:55.631Z,6.10
2019-01-16T19:27:43.490Z,6.10
2019-01-16T19:30:30.114Z,6.10
2019-01-16T19:33:15.507Z,6.10
2019-01-16T19:36:00.058Z,6.10
2019-01-16T19:38:47.050Z,6.10
2019-01-16T19:41:28.424Z,6.00
2019-01-16T19:44:18.399Z,6.00
2019-01-16T19:47:04.217Z,6.00
2019-01-16T19:49:50.091Z,6.00
2019-01-16T19:52:28.010Z,6.00
2019-01-16T19:55:13.997Z,6.00
2019-01-16T19:58:04.274Z,6.00
2019-01-16T20:00:51.280Z,5.90
2019-01-16T20:03:38.728Z,5.90
2019-01-16T20:06:22.371Z,5.90
2019-01-16T20:09:08.003Z,5.90
2019-01-16T20:11:55.108Z,5.90
2019-01-16T20:14:45.726Z,5.80
2019-01-16T20:17:29.878Z,5.80
2019-01-16T20:20:12.809Z,5.80
2019-01-16T20:22:58.808Z,5.80
2019-01-16T20:25:41.567Z,5.70
2019-01-16T20:28:33.604Z,5.70
2019-01-16T20:31:33.143Z,5.70
2019-01-16T20:34:23.139Z,5.60
2019-01-16T20:36:59.758Z,5.60
2019-01-16T20:39:52.354Z,5.60
2019-01-16T20:42:38.439Z,5.60
2019-01-16T20:45:25.078Z,5.50
2019-01-16T20:48:07.911Z,5.50
2019-01-16T20:50:58.892Z,5.50
2019-01-16T20:53:44.886Z,5.50
2019-01-16T20:56:20.443Z,5.50
2019-01-16T20:59:07.541Z,5.70
2019-01-16T21:02:00.442Z,5.80
2019-01-16T21:04:46.337Z,6.00
2019-01-16T21:07:25.666Z,6.10
2019-01-16T21:10:04.102Z,6.10
2019-01-16T21:12:58.382Z,6.10
2019-01-16T21:15:51.981Z,6.10
2019-01-16T21:18:31.799Z,6.00
2019-01-16T21:21:12.015Z,6.00
2019-01-16T21:23:48.167Z,6.00
2019-01-16T21:26:41.169Z,6.00
2019-01-16T21:29:36.682Z,5.90
2019-01-16T21:32:15.772Z,5.90
2019-01-16T21:34:55.714Z,5.90
2019-01-16T21:37:41.797Z,6.00
2019-01-16T21:40:29.854Z,5.90
2019-01-16T21:43:07.726Z,5.80
2019-01-16T21:45:54.830Z,5.80
2019-01-16T21:48:44.878Z,5.50
2019-01-16T21:51:30.791Z,5.30
2019-01-16T21:54:15.839Z,5.20
2019-01-16T21:57:01.690Z,5.10
2019-01-16T21:59:44.270Z,5.00
2019-01-16T22:02:31.736Z,4.90
2019-01-16T22:05:17.466Z,4.80
2019-01-16T22:08:03.038Z,4.70
2019-01-16T22:10:44.519Z,4.60
2019-01-16T22:13:40.562Z,4.60
2019-01-16T22:16:25.697Z,4.50
2019-01-16T22:19:15.806Z,4.50
2019-01-16T22:22:01.715Z,4.40
2019-01-16T22:24:47.595Z,4.40
2019-01-16T22:27:33.615Z,4.40
2019-01-16T22:30:10.870Z,4.40
2019-01-16T22:32:46.510Z,4.30
2019-01-16T22:35:23.402Z,4.30
2019-01-16T22:38:09.453Z,4.30
2019-01-16T22:40:55.615Z,4.30
2019-01-16T22:43:31.650Z,4.20
2019-01-16T22:46:14.482Z,4.20
2019-01-16T22:49:00.237Z,4.10
2019-01-16T22:51:43.974Z,4.10
2019-01-16T22:54:29.642Z,4.10
2019-01-16T22:57:21.957Z,4.10
2019-01-16T23:00:08.007Z,4.00
2019-01-16T23:03:04.530Z,4.00
2019-01-16T23:05:42.509Z,4.00
2019-01-16T23:08:17.783Z,4.00
2019-01-16T23:10:58.675Z,4.00
2019-01-16T23:13:58.169Z,4.00
2019-01-16T23:16:48.666Z,3.90
2019-01-16T23:19:31.595Z,3.90
2019-01-16T23:22:14.806Z,3.90
2019-01-16T23:24:58.978Z,3.90
2019-01-16T23:27:46.189Z,3.90
2019-01-16T23:30:42.870Z,3.90
2019-01-16T23:33:29.591Z,3.90
2019-01-16T23:36:09.802Z,3.90
2019-01-16T23:38:44.838Z,3.80
2019-01-16T23:41:44.259Z,3.80
2019-01-16T23:44:33.128Z,3.80
2019-01-16T23:47:26.550Z,3.70
2019-01-16T23:50:12.671Z,3.70
2019-01-16T23:52:52.541Z,3.70
2019-01-16T23:55:31.751Z,3.70
2019-01-16T23:58:17.573Z,3.70
